Time;durP1;ratioP1;P1;durP2;ratioP2;P2;SDS_P1;SDS_P2;PMS_P1;PMS_P2;Temp;Humidity;BMP_temperature;BMP_pressure;BME280_temperature;BME280_humidity;BME280_pressure;Samples;Min_cycle;Max_cycle;Signal;HPM_P1;HPM_P2
2022/06/09 00:00:28;;;;;;;30.42;15.60;;;17.20;99.90;;;;;;4974624;28;103018;-71
2022/06/09 00:02:58;;;;;;;29.17;15.20;;;17.20;99.90;;;;;;4975128;28;98497;-71
2022/06/09 00:05:26;;;;;;;24.23;13.18;;;17.20;99.90;;;;;;4975338;28;97830;-71
2022/06/09 00:07:55;;;;;;;30.25;14.75;;;17.20;99.90;;;;;;4974856;28;99289;-70
2022/06/09 00:10:29;;;;;;;30.67;15.05;;;17.20;99.90;;;;;;4957068;28;99210;-71
2022/06/09 00:12:57;;;;;;;28.63;13.40;;;17.20;99.90;;;;;;4956817;28;100046;-71
2022/06/09 00:15:26;;;;;;;26.08;11.30;;;17.20;99.90;;;;;;4974905;28;98506;-71
2022/06/09 00:17:53;;;;;;;25.25;12.73;;;17.20;99.90;;;;;;4957086;28;99232;-71
2022/06/09 00:20:21;;;;;;;24.98;11.95;;;17.20;99.90;;;;;;4974511;28;99045;-71
2022/06/09 00:22:48;;;;;;;25.30;11.70;;;17.20;99.90;;;;;;4972835;28;104559;-71
2022/06/09 00:25:15;;;;;;;23.95;10.68;;;17.20;99.90;;;;;;4973530;28;98546;-70
2022/06/09 00:27:42;;;;;;;21.98;11.23;;;17.10;99.90;;;;;;4972514;28;101888;-71
2022/06/09 00:30:12;;;;;;;24.02;10.02;;;17.20;99.90;;;;;;4973363;28;101590;-71
2022/06/09 00:32:39;;;;;;;21.35;11.13;;;17.20;99.90;;;;;;4974441;28;98414;-71
2022/06/09 00:35:06;;;;;;;29.20;10.68;;;17.20;99.90;;;;;;4957078;28;99021;-71
2022/06/09 00:37:34;;;;;;;19.88;11.65;;;17.20;99.90;;;;;;4955937;28;102553;-71
2022/06/09 00:40:03;;;;;;;24.83;11.55;;;17.20;99.90;;;;;;4956608;28;102290;-70
2022/06/09 00:42:32;;;;;;;23.73;10.02;;;17.20;99.90;;;;;;4972971;28;98992;-71
2022/06/09 00:45:38;;;;;;;25.50;10.52;;;17.20;99.90;;;;;;4974475;28;98529;-71
2022/06/09 00:48:43;;;;;;;20.60;10.15;;;17.20;99.90;;;;;;4956008;28;108202;-71
2022/06/09 00:51:37;;;;;;;21.25;10.57;;;17.20;99.90;;;;;;4972614;28;101586;-71
2022/06/09 00:54:17;;;;;;;;;;;17.20;99.90;;;;;;4957498;28;98555;-71
2022/06/09 00:56:56;;;;;;;20.75;10.25;;;17.00;99.90;;;;;;4975518;28;97784;-71
2022/06/09 00:59:26;;;;;;;22.88;10.75;;;17.10;99.90;;;;;;4974119;28;99331;-71
2022/06/09 01:01:54;;;;;;;24.92;11.52;;;17.10;99.90;;;;;;4973849;28;99511;-70
2022/06/09 01:04:22;;;;;;;25.13;11.38;;;17.20;99.90;;;;;;4973846;28;99707;-70
2022/06/09 01:06:57;;;;;;;25.65;11.52;;;17.20;99.90;;;;;;4955960;28;98971;-71
2022/06/09 01:09:26;;;;;;;28.83;14.23;;;17.30;99.90;;;;;;4974214;28;99430;-71
2022/06/09 01:11:55;;;;;;;24.65;11.63;;;17.20;99.90;;;;;;4973312;28;99270;-71
2022/06/09 01:14:26;;;;;;;25.90;13.43;;;17.20;99.90;;;;;;4973986;28;98421;-71
2022/06/09 01:17:15;;;;;;;25.48;12.77;;;17.20;99.90;;;;;;4956061;28;98647;-71
2022/06/09 01:20:09;;;;;;;24.52;12.40;;;17.20;99.90;;;;;;4973408;28;99253;-71
2022/06/09 01:22:58;;;;;;;33.83;14.20;;;17.10;99.90;;;;;;4955818;28;105681;-71
2022/06/09 01:25:51;;;;;;;26.02;11.38;;;17.00;99.90;;;;;;4973762;28;98620;-71
2022/06/09 01:28:20;;;;;;;28.40;12.32;;;16.90;99.90;;;;;;4955645;28;98632;-71
2022/06/09 01:30:56;;;;;;;27.25;11.73;;;16.90;99.90;;;;;;4971637;28;100095;-71
2022/06/09 01:33:43;;;;;;;23.10;11.80;;;16.90;99.90;;;;;;4973250;28;99811;-71
2022/06/09 01:36:21;;;;;;;19.38;11.13;;;16.90;99.90;;;;;;4955990;28;98553;-71
2022/06/09 01:38:52;;;;;;;25.83;10.82;;;17.00;99.90;;;;;;4973715;28;98428;-71
2022/06/09 01:41:22;;;;;;;24.33;11.82;;;17.00;99.90;;;;;;4955960;28;99342;-71
2022/06/09 01:43:51;;;;;;;20.52;12.35;;;17.00;99.90;;;;;;4955415;28;99952;-71
2022/06/09 01:46:30;;;;;;;25.80;11.75;;;17.00;99.90;;;;;;4955556;28;98510;-70
2022/06/09 01:49:13;;;;;;;20.00;10.65;;;17.10;99.90;;;;;;4973762;28;97731;-71
2022/06/09 01:51:43;;;;;;;27.60;11.70;;;17.10;99.90;;;;;;4973117;28;99408;-71
2022/06/09 01:54:16;;;;;;;28.33;12.60;;;17.10;99.90;;;;;;4955160;28;99287;-71
2022/06/09 01:56:58;;;;;;;;;;;17.20;99.90;;;;;;4955177;28;99479;-71
2022/06/09 01:59:39;;;;;;;26.02;11.82;;;17.10;99.90;;;;;;4957076;28;98632;-71
2022/06/09 02:02:12;;;;;;;32.63;13.85;;;17.20;99.90;;;;;;4954668;28;101967;-71
2022/06/09 02:04:59;;;;;;;24.48;12.40;;;17.20;99.90;;;;;;4973105;28;99190;-71
2022/06/09 02:07:29;;;;;;;25.75;11.32;;;17.20;99.90;;;;;;4973279;28;98614;-71
2022/06/09 02:09:56;;;;;;;28.95;12.38;;;17.20;99.90;;;;;;4973166;28;99039;-71
2022/06/09 02:12:27;;;;;;;24.50;13.45;;;17.20;99.90;;;;;;4970987;28;101820;-71
2022/06/09 02:14:58;;;;;;;29.80;13.65;;;17.20;99.90;;;;;;4955486;28;99193;-71
2022/06/09 02:17:25;;;;;;;29.90;12.32;;;17.20;99.90;;;;;;4973210;28;98619;-71
2022/06/09 02:19:52;;;;;;;28.20;11.90;;;17.20;99.90;;;;;;4972882;28;98513;-71
2022/06/09 02:22:20;;;;;;;29.23;12.05;;;17.20;99.90;;;;;;4954058;28;115528;-71
2022/06/09 02:24:47;;;;;;;26.38;13.48;;;17.10;99.90;;;;;;4972324;28;99918;-71
2022/06/09 02:27:14;;;;;;;31.77;12.98;;;17.00;99.90;;;;;;4955527;28;98645;-71
2022/06/09 02:29:41;;;;;;;28.05;12.07;;;17.00;99.90;;;;;;4973246;28;99037;-71
2022/06/09 02:32:08;;;;;;;30.92;12.27;;;17.00;99.90;;;;;;4972379;28;99401;-70
2022/06/09 02:34:35;;;;;;;31.95;13.73;;;16.90;99.90;;;;;;4971360;28;99022;-71
2022/06/09 02:37:02;;;;;;;29.65;13.30;;;16.90;99.90;;;;;;4972643;28;99298;-71
2022/06/09 02:39:29;;;;;;;24.73;12.60;;;16.90;99.90;;;;;;4973113;28;97816;-71
2022/06/09 02:41:56;;;;;;;32.33;12.77;;;16.80;99.90;;;;;;4972136;28;99359;-70
2022/06/09 02:44:23;;;;;;;30.67;11.80;;;16.80;99.90;;;;;;4972549;28;99150;-71
2022/06/09 02:46:50;;;;;;;29.52;13.50;;;16.80;99.90;;;;;;4972065;28;99223;-71
2022/06/09 02:49:17;;;;;;;30.55;13.20;;;16.80;99.90;;;;;;4972824;28;98524;-71
2022/06/09 02:51:44;;;;;;;27.00;11.75;;;16.80;99.90;;;;;;4972393;28;99694;-71
2022/06/09 02:54:12;;;;;;;26.55;13.00;;;16.80;99.90;;;;;;4971989;28;98962;-70
2022/06/09 02:56:42;;;;;;;27.30;12.05;;;16.80;99.90;;;;;;4972061;28;98535;-71
2022/06/09 02:59:10;;;;;;;22.70;12.00;;;16.80;99.90;;;;;;4972379;28;98515;-71
2022/06/09 03:01:38;;;;;;;25.58;10.95;;;16.80;99.90;;;;;;4971872;28;99920;-70
2022/06/09 03:04:05;;;;;;;27.95;13.00;;;16.80;99.90;;;;;;4971786;28;111998;-71
2022/06/09 03:06:33;;;;;;;25.60;11.90;;;16.90;99.90;;;;;;4953726;28;98580;-71
2022/06/09 03:09:00;;;;;;;25.67;11.63;;;16.90;99.90;;;;;;4972441;28;99035;-71
2022/06/09 03:11:27;;;;;;;29.33;11.70;;;16.90;99.90;;;;;;4970398;28;99956;-71
2022/06/09 03:13:54;;;;;;;27.25;11.82;;;16.90;99.90;;;;;;4971697;28;99864;-71
2022/06/09 03:16:21;;;;;;;29.13;12.57;;;16.90;99.90;;;;;;4972399;28;98429;-71
2022/06/09 03:18:49;;;;;;;27.52;12.70;;;17.00;99.90;;;;;;4954306;28;98622;-71
2022/06/09 03:21:16;;;;;;;28.80;13.45;;;17.00;99.90;;;;;;4970238;28;101916;-71
2022/06/09 03:23:43;;;;;;;26.80;12.80;;;17.00;99.90;;;;;;4954484;28;99032;-71
2022/06/09 03:26:10;;;;;;;28.10;12.68;;;17.00;99.90;;;;;;4972108;28;99302;-71
2022/06/09 03:28:37;;;;;;;23.92;13.18;;;17.00;99.90;;;;;;4970878;28;97906;-71
2022/06/09 03:31:04;;;;;;;30.13;14.93;;;17.00;99.90;;;;;;4971449;28;99313;-71
2022/06/09 03:33:31;;;;;;;31.48;15.65;;;17.00;99.90;;;;;;4953900;28;99145;-71
2022/06/09 03:35:58;;;;;;;34.40;15.02;;;17.00;99.90;;;;;;4971661;28;99752;-71
2022/06/09 03:38:25;;;;;;;27.15;14.52;;;17.00;99.90;;;;;;4970712;28;98519;-71
2022/06/09 03:40:52;;;;;;;31.00;16.95;;;17.00;99.90;;;;;;4971732;28;99231;-71
2022/06/09 03:43:19;;;;;;;39.70;16.30;;;17.00;99.90;;;;;;4970302;28;99047;-71
2022/06/09 03:45:46;;;;;;;29.83;15.13;;;17.00;99.90;;;;;;4971932;28;99069;-71
2022/06/09 03:48:13;;;;;;;29.50;15.95;;;17.00;99.90;;;;;;4953909;28;101462;-71
2022/06/09 03:50:40;;;;;;;29.00;16.58;;;17.00;99.90;;;;;;4971597;28;99133;-71
2022/06/09 03:53:07;;;;;;;28.23;15.73;;;17.10;99.90;;;;;;4970574;28;98984;-71
2022/06/09 03:55:34;;;;;;;26.50;15.48;;;17.00;99.90;;;;;;4950361;28;99292;-71
2022/06/09 03:58:01;;;;;;;28.70;15.77;;;17.00;99.90;;;;;;4967087;28;98657;-71
2022/06/09 04:00:30;;;;;;;27.55;16.20;;;17.10;99.90;;;;;;4966493;28;102588;-71
2022/06/09 04:02:57;;;;;;;23.67;14.52;;;17.10;99.90;;;;;;4966599;28;102308;-71
2022/06/09 04:05:25;;;;;;;28.40;14.88;;;17.10;99.90;;;;;;4951895;28;98441;-71
2022/06/09 04:07:53;;;;;;;25.80;13.48;;;17.10;99.90;;;;;;4950793;28;98806;-70
2022/06/09 04:10:24;;;;;;;22.45;13.27;;;17.10;99.90;;;;;;4966474;28;101902;-71
2022/06/09 04:12:50;;;;;;;21.20;13.68;;;17.20;99.90;;;;;;4951626;28;99036;-71
2022/06/09 04:15:18;;;;;;;22.15;11.93;;;17.20;99.90;;;;;;4951839;28;98533;-71
2022/06/09 04:17:45;;;;;;;22.25;11.63;;;17.20;99.90;;;;;;4953904;28;97745;-71
2022/06/09 04:20:17;;;;;;;15.82;11.63;;;17.20;99.90;;;;;;4954843;28;99255;-71
2022/06/09 04:22:44;;;;;;;19.73;12.52;;;17.30;99.90;;;;;;4955228;28;99141;-71
2022/06/09 04:25:16;;;;;;;21.58;12.60;;;17.30;99.90;;;;;;4953386;28;99438;-71
2022/06/09 04:27:43;;;;;;;15.82;11.07;;;17.30;99.90;;;;;;4953781;28;98587;-71
2022/06/09 04:30:11;;;;;;;21.70;12.45;;;17.30;99.90;;;;;;4954354;28;112705;-71
2022/06/09 04:32:38;;;;;;;18.88;11.88;;;17.40;99.90;;;;;;4969787;28;98960;-71
2022/06/09 04:35:06;;;;;;;22.88;11.02;;;17.40;99.90;;;;;;4937660;28;98563;-71
2022/06/09 04:40:19;;;;;;;13.77;10.30;;;17.50;99.90;;;;;;4954922;28;99221;-71
2022/06/09 04:42:46;;;;;;;21.75;10.18;;;17.50;99.90;;;;;;4954988;28;99117;-71
2022/06/09 04:45:14;;;;;;;20.63;9.50;;;17.50;99.90;;;;;;4954736;28;98758;-71
2022/06/09 04:47:41;;;;;;;20.15;10.43;;;17.50;99.90;;;;;;4954051;28;98639;-70
2022/06/09 04:50:09;;;;;;;13.73;9.10;;;17.50;99.90;;;;;;4968597;28;102742;-71
2022/06/09 04:52:36;;;;;;;19.52;8.93;;;17.60;99.90;;;;;;4955034;28;99898;-71
2022/06/09 04:55:04;;;;;;;15.73;9.63;;;17.50;99.90;;;;;;4955132;28;98477;-71
2022/06/09 04:57:31;;;;;;;19.70;10.43;;;17.60;99.90;;;;;;4973043;28;98561;-71
2022/06/09 04:59:58;;;;;;;14.85;8.85;;;17.60;99.90;;;;;;4974063;28;99402;-71
2022/06/09 05:02:26;;;;;;;17.13;10.68;;;17.60;99.90;;;;;;4972781;28;99144;-71
2022/06/09 05:04:53;;;;;;;17.55;9.50;;;17.60;99.90;;;;;;4974231;28;98529;-71
2022/06/09 05:07:19;;;;;;;15.52;9.82;;;17.60;99.90;;;;;;4973238;28;97841;-71
2022/06/09 05:09:46;;;;;;;14.75;9.07;;;17.60;99.90;;;;;;4973064;28;100773;-71
2022/06/09 05:12:13;;;;;;;19.13;9.07;;;17.60;99.90;;;;;;4940458;28;99398;-71
2022/06/09 05:14:40;;;;;;;13.98;9.98;;;17.70;99.90;;;;;;4972852;28;99273;-70
2022/06/09 05:17:07;;;;;;;17.80;10.60;;;17.70;99.90;;;;;;4974022;28;98489;-71
2022/06/09 05:19:34;;;;;;;22.23;9.90;;;17.70;99.90;;;;;;4955711;28;102251;-71
2022/06/09 05:22:01;;;;;;;17.30;10.05;;;17.70;99.90;;;;;;4972735;28;99128;-71
2022/06/09 05:24:28;;;;;;;18.63;11.20;;;17.70;99.90;;;;;;4973684;28;98516;-71
2022/06/09 05:26:55;;;;;;;16.13;10.63;;;17.80;99.90;;;;;;4973745;28;98512;-71
2022/06/09 05:29:22;;;;;;;13.93;9.65;;;17.80;99.90;;;;;;4972348;28;99269;-71
2022/06/09 05:31:49;;;;;;;17.60;13.15;;;17.80;99.90;;;;;;4974494;28;99001;-71
2022/06/09 05:34:16;;;;;;;17.95;11.38;;;17.90;99.90;;;;;;4972453;28;98614;-71
2022/06/09 05:36:43;;;;;;;15.52;11.82;;;17.90;99.90;;;;;;4972301;28;98616;-71
2022/06/09 05:44:53;;;;;;;19.00;12.77;;;17.90;99.90;;;;;;4971960;28;98543;-71
2022/06/09 05:47:22;;;;;;;19.63;15.02;;;17.90;99.90;;;;;;4973388;28;98547;-71
2022/06/09 05:49:51;;;;;;;16.80;13.15;;;17.90;99.90;;;;;;4971660;28;99317;-71
2022/06/09 05:52:22;;;;;;;18.55;14.93;;;17.90;99.90;;;;;;4955106;28;99121;-71
2022/06/09 05:54:51;;;;;;;18.67;14.73;;;17.90;99.90;;;;;;4973507;28;98515;-71
2022/06/09 05:57:20;;;;;;;19.40;15.40;;;17.90;99.90;;;;;;4973389;28;97906;-71
2022/06/09 05:59:48;;;;;;;17.77;12.63;;;17.90;99.90;;;;;;4972655;28;102090;-71
2022/06/09 06:02:16;;;;;;;16.33;14.60;;;17.90;99.90;;;;;;4972590;28;104001;-71
2022/06/09 06:04:44;;;;;;;14.65;12.75;;;17.90;99.90;;;;;;4971258;28;99255;-71
2022/06/09 06:07:11;;;;;;;16.75;14.25;;;18.00;99.90;;;;;;4973044;28;98722;-71
2022/06/09 06:09:39;;;;;;;18.13;13.18;;;18.00;99.90;;;;;;4938389;28;101882;-71
2022/06/09 06:12:07;;;;;;;18.70;14.45;;;18.00;99.90;;;;;;4971354;28;99108;-71
2022/06/09 06:14:35;;;;;;;19.50;16.50;;;17.90;99.90;;;;;;4972651;28;98425;-71
2022/06/09 06:17:03;;;;;;;16.48;14.40;;;17.90;99.90;;;;;;4973175;28;98563;-71
2022/06/09 06:19:30;;;;;;;20.67;15.40;;;17.90;99.90;;;;;;4972307;28;99347;-71
2022/06/09 06:21:57;;;;;;;20.88;15.82;;;18.00;99.90;;;;;;4972990;28;99069;-71
2022/06/09 06:24:24;;;;;;;17.25;14.25;;;18.00;99.90;;;;;;4972554;28;98490;-71
2022/06/09 06:26:52;;;;;;;17.58;15.15;;;18.00;99.90;;;;;;4972973;28;98584;-71
2022/06/09 06:29:22;;;;;;;19.23;16.15;;;18.00;99.90;;;;;;4972462;28;100114;-71
2022/06/09 06:31:50;;;;;;;20.05;14.98;;;18.10;99.90;;;;;;4954660;28;102466;-71
2022/06/09 06:34:17;;;;;;;19.23;14.82;;;18.10;99.90;;;;;;4972767;28;98483;-71
2022/06/09 06:36:44;;;;;;;21.80;16.35;;;18.20;99.90;;;;;;4954735;28;99154;-71
2022/06/09 06:39:11;;;;;;;18.65;16.23;;;18.30;99.90;;;;;;4954471;28;100259;-71
2022/06/09 06:41:39;;;;;;;19.55;16.90;;;18.30;99.90;;;;;;4972068;28;98844;-71
2022/06/09 06:44:06;;;;;;;16.70;14.40;;;18.50;99.90;;;;;;4972819;28;98938;-71
2022/06/09 06:46:34;;;;;;;17.58;15.55;;;18.60;99.90;;;;;;4972594;28;97770;-71
2022/06/09 06:49:03;;;;;;;18.25;16.35;;;18.80;99.90;;;;;;4954750;28;99324;-71
2022/06/09 06:51:29;;;;;;;18.27;16.38;;;19.00;99.90;;;;;;4971958;28;98997;-71
2022/06/09 06:53:56;;;;;;;17.63;15.88;;;19.20;99.90;;;;;;4954806;28;99707;-71
2022/06/09 06:56:23;;;;;;;18.20;15.85;;;19.50;99.60;;;;;;4954215;28;98584;-71
2022/06/09 06:58:50;;;;;;;19.80;16.40;;;19.80;99.30;;;;;;4953993;28;100352;-71
2022/06/09 07:01:17;;;;;;;19.33;17.52;;;19.90;98.90;;;;;;4972069;28;106506;-71
2022/06/09 07:03:44;;;;;;;18.30;16.42;;;20.00;98.70;;;;;;4971118;28;98487;-71
2022/06/09 07:06:11;;;;;;;17.08;14.93;;;20.10;98.50;;;;;;4954506;28;98654;-71
2022/06/09 07:08:38;;;;;;;17.63;15.70;;;20.20;98.30;;;;;;4953935;28;102327;-71
2022/06/09 07:11:07;;;;;;;17.77;16.08;;;20.40;98.30;;;;;;4954882;28;99085;-71
2022/06/09 07:13:36;;;;;;;18.35;15.77;;;20.50;98.10;;;;;;4972022;28;98405;-71
2022/06/09 07:16:05;;;;;;;18.20;16.30;;;20.70;97.90;;;;;;4970931;28;98550;-71
2022/06/09 07:18:39;;;;;;;16.58;14.88;;;20.80;97.60;;;;;;4971523;28;100130;-71
2022/06/09 07:21:07;;;;;;;15.18;13.63;;;21.10;97.10;;;;;;4971786;28;99780;-71
2022/06/09 07:23:34;;;;;;;16.95;15.43;;;21.20;96.80;;;;;;4971784;28;98558;-71
2022/06/09 07:26:03;;;;;;;16.52;14.82;;;21.30;96.90;;;;;;4972320;28;98573;-71
2022/06/09 07:28:30;;;;;;;16.00;14.30;;;21.50;96.50;;;;;;4953505;28;102159;-71
2022/06/09 07:30:58;;;;;;;18.08;15.23;;;21.50;96.50;;;;;;4971590;28;99034;-71
2022/06/09 07:33:32;;;;;;;15.52;13.93;;;21.60;96.30;;;;;;4970221;28;98596;-71
2022/06/09 07:36:06;;;;;;;17.05;15.25;;;21.80;96.00;;;;;;4955756;28;98345;-71
2022/06/09 07:38:33;;;;;;;18.55;14.90;;;21.90;95.90;;;;;;4954376;28;99247;-71
2022/06/09 07:41:00;;;;;;;16.77;15.38;;;21.90;95.70;;;;;;4970078;28;100786;-71
2022/06/09 07:43:48;;;;;;;14.80;13.40;;;22.00;95.60;;;;;;4967098;28;99285;-71
2022/06/09 07:46:16;;;;;;;14.52;13.10;;;22.00;95.00;;;;;;4971832;28;98517;-71
2022/06/09 07:48:45;;;;;;;14.10;12.90;;;22.00;95.00;;;;;;4969912;28;101908;-71
2022/06/09 07:51:15;;;;;;;13.93;12.50;;;21.90;94.60;;;;;;4969773;28;101877;-71
2022/06/09 07:53:42;;;;;;;13.48;12.10;;;21.80;95.00;;;;;;4957231;28;98496;-71
2022/06/09 07:56:10;;;;;;;13.85;12.65;;;21.80;95.20;;;;;;4974948;28;99337;-71
2022/06/09 07:58:37;;;;;;;11.57;10.57;;;21.90;95.50;;;;;;4956990;28;101761;-71
2022/06/09 08:01:04;;;;;;;13.48;11.68;;;22.10;95.40;;;;;;4957147;28;107519;-71
2022/06/09 08:03:31;;;;;;;11.45;10.32;;;22.40;94.90;;;;;;4973840;28;99215;-71
2022/06/09 08:05:58;;;;;;;10.35;8.98;;;22.60;94.40;;;;;;4957047;28;99496;-71
2022/06/09 08:08:45;;;;;;;10.35;9.30;;;22.90;94.00;;;;;;4975006;28;99971;-71
2022/06/09 08:11:11;;;;;;;9.10;8.20;;;23.30;93.60;;;;;;4975072;28;101821;-71
2022/06/09 08:13:38;;;;;;;8.55;7.75;;;23.70;92.80;;;;;;4975797;28;98475;-71
2022/06/09 08:16:07;;;;;;;8.73;7.95;;;23.90;92.60;;;;;;4975567;28;98505;-71
2022/06/09 08:18:34;;;;;;;7.38;6.53;;;24.40;92.10;;;;;;4957656;28;99471;-72
2022/06/09 08:21:01;;;;;;;7.75;6.90;;;24.80;91.50;;;;;;4975024;28;99262;-71
2022/06/09 08:23:46;;;;;;;6.38;5.85;;;25.40;90.20;;;;;;4973944;28;98477;-71
2022/06/09 08:26:13;;;;;;;6.75;6.30;;;26.10;88.80;;;;;;4975696;28;98151;-71
2022/06/09 08:28:40;;;;;;;6.03;5.18;;;26.90;83.30;;;;;;4957045;28;102250;-71
2022/06/09 08:31:07;;;;;;;6.78;4.95;;;27.90;81.90;;;;;;4957110;28;101627;-72
2022/06/09 08:33:35;;;;;;;6.25;5.30;;;28.40;78.90;;;;;;4957380;28;99200;-71
2022/06/09 08:36:03;;;;;;;6.13;5.65;;;28.60;76.50;;;;;;4974946;28;98526;-72
2022/06/09 08:38:30;;;;;;;5.55;5.15;;;28.60;76.30;;;;;;4974859;28;99219;-72
2022/06/09 08:41:42;;;;;;;4.32;3.60;;;29.00;75.50;;;;;;4974904;28;99026;-71
2022/06/09 08:44:29;;;;;;;4.22;3.92;;;30.00;71.00;;;;;;4975408;28;98531;-71
2022/06/09 08:46:59;;;;;;;6.43;3.88;;;30.60;69.20;;;;;;4973632;28;98576;-72
2022/06/09 08:49:47;;;;;;;5.78;4.00;;;30.80;68.20;;;;;;4973190;28;99071;-72
2022/06/09 08:52:33;;;;;;;3.80;3.50;;;30.80;68.00;;;;;;4973709;28;101664;-72
2022/06/09 08:55:06;;;;;;;4.32;3.90;;;30.60;66.90;;;;;;4974985;28;99188;-72
2022/06/09 08:57:35;;;;;;;4.50;3.60;;;30.20;67.70;;;;;;4940860;28;98576;-72
2022/06/09 09:00:03;;;;;;;3.25;2.60;;;30.20;67.60;;;;;;4973774;28;99985;-72
2022/06/09 09:02:50;;;;;;;4.90;2.17;;;30.30;65.60;;;;;;4956655;28;104984;-72
2022/06/09 09:05:39;;;;;;;4.47;3.13;;;30.20;64.20;;;;;;4973949;28;98499;-72
2022/06/09 09:08:09;;;;;;;3.75;2.40;;;29.90;65.00;;;;;;4974594;28;98842;-72
2022/06/09 09:10:39;;;;;;;4.00;1.70;;;29.70;65.20;;;;;;4956650;28;101790;-72
2022/06/09 09:13:44;;;;;;;2.55;1.85;;;29.70;65.70;;;;;;4972640;28;102537;-72
2022/06/09 09:16:30;;;;;;;3.20;1.77;;;29.20;65.50;;;;;;4878444;28;98677;-72
2022/06/09 09:19:28;;;;;;;3.03;1.58;;;28.70;66.30;;;;;;4970016;28;97887;-72
2022/06/09 09:22:04;;;;;;;2.63;1.50;;;28.40;67.60;;;;;;4974075;28;99095;-71
2022/06/09 09:24:57;;;;;;;2.75;1.52;;;28.00;66.90;;;;;;4956296;28;101552;-71
2022/06/09 09:27:24;;;;;;;3.67;2.08;;;27.40;67.40;;;;;;4972454;28;99730;-72
2022/06/09 09:30:05;;;;;;;3.95;2.22;;;27.00;69.90;;;;;;4972109;28;101793;-71
2022/06/09 09:32:54;;;;;;;3.92;2.03;;;26.90;71.50;;;;;;4956176;28;99256;-72
2022/06/09 09:35:27;;;;;;;3.13;2.55;;;26.70;71.30;;;;;;4974415;28;99241;-71
2022/06/09 09:37:57;;;;;;;1.58;1.23;;;26.50;72.10;;;;;;4956805;28;98588;-72
2022/06/09 09:40:30;;;;;;;2.80;1.30;;;26.40;71.60;;;;;;4974069;28;98521;-72
2022/06/09 09:43:00;;;;;;;2.67;2.47;;;26.20;71.10;;;;;;4956269;28;99681;-72
2022/06/09 09:45:37;;;;;;;2.28;1.38;;;25.90;70.30;;;;;;4974226;28;98988;-72
2022/06/09 09:48:26;;;;;;;2.67;2.47;;;25.80;71.60;;;;;;4974055;28;98420;-71
2022/06/09 09:51:10;;;;;;;2.93;1.50;;;25.80;72.40;;;;;;4955966;28;98599;-71
2022/06/09 09:53:56;;;;;;;5.35;2.35;;;25.80;72.90;;;;;;4955947;28;100052;-72
2022/06/09 09:56:41;;;;;;;2.50;1.83;;;25.70;72.30;;;;;;4952481;28;101062;-71
2022/06/09 09:59:24;;;;;;;5.07;2.40;;;25.50;72.20;;;;;;4969467;28;98532;-72
2022/06/09 10:08:39;;;;;;;2.85;1.13;;;25.10;74.50;;;;;;4952190;28;101761;-72
2022/06/09 10:15:03;;;;;;;2.88;1.25;;;25.20;73.30;;;;;;4954330;28;97821;-72
2022/06/09 10:18:02;;;;;;;3.15;2.53;;;25.30;73.70;;;;;;4953907;28;99243;-71
2022/06/09 10:21:06;;;;;;;3.50;1.65;;;25.50;73.50;;;;;;4968666;28;101519;-71
2022/06/09 10:23:47;;;;;;;2.92;1.35;;;25.50;72.20;;;;;;4952763;28;99677;-71
2022/06/09 10:26:30;;;;;;;2.65;1.50;;;25.60;71.90;;;;;;4953869;28;98658;-72
2022/06/09 10:29:08;;;;;;;2.58;2.15;;;25.70;72.60;;;;;;4952407;28;99421;-72
2022/06/09 10:31:57;;;;;;;4.35;1.35;;;25.80;72.30;;;;;;4952236;28;101533;-71
2022/06/09 10:34:49;;;;;;;5.57;1.50;;;26.00;71.80;;;;;;4968930;28;98559;-71
2022/06/09 10:37:28;;;;;;;4.50;1.40;;;26.00;70.80;;;;;;4968776;28;98628;-72
2022/06/09 10:40:06;;;;;;;2.38;1.00;;;25.80;71.90;;;;;;4953736;28;99240;-72
2022/06/09 10:42:45;;;;;;;3.97;1.65;;;25.70;71.50;;;;;;4953711;28;99164;-72
2022/06/09 10:45:40;;;;;;;3.22;2.13;;;25.60;70.70;;;;;;4953827;28;98540;-71
2022/06/09 10:55:18;;;;;;;1.83;1.17;;;25.20;71.70;;;;;;4941167;28;103337;-71
2022/06/09 10:57:58;;;;;;;3.22;1.50;;;25.10;71.80;;;;;;4968008;28;98624;-71
2022/06/09 11:00:34;;;;;;;3.00;1.20;;;25.00;73.00;;;;;;4952342;28;99075;-72
2022/06/09 11:03:11;;;;;;;3.97;1.23;;;24.90;71.60;;;;;;4953350;28;99851;-72
2022/06/09 11:05:59;;;;;;;3.10;1.55;;;24.90;71.70;;;;;;4953130;28;99271;-72
2022/06/09 11:08:30;;;;;;;4.72;2.00;;;25.00;71.90;;;;;;4953199;28;98466;-71
2022/06/09 11:10:59;;;;;;;2.33;1.77;;;25.00;71.00;;;;;;4968953;28;98014;-71
2022/06/09 11:13:45;;;;;;;2.13;1.98;;;25.00;71.30;;;;;;4951313;28;100288;-71
2022/06/09 11:16:22;;;;;;;5.00;2.20;;;24.90;71.40;;;;;;4967885;28;99080;-71
2022/06/09 11:19:21;;;;;;;2.67;1.80;;;25.00;71.90;;;;;;4967847;28;99341;-71
2022/06/09 11:22:06;;;;;;;4.30;2.25;;;25.00;69.10;;;;;;4953445;28;98391;-71
2022/06/09 11:24:48;;;;;;;3.83;2.83;;;24.90;69.00;;;;;;4967984;28;101890;-71
2022/06/09 11:27:38;;;;;;;3.47;1.17;;;24.80;69.30;;;;;;4951752;28;98954;-71
2022/06/09 11:30:46;;;;;;;3.30;2.95;;;24.80;69.70;;;;;;4953513;28;98767;-71
2022/06/09 11:33:54;;;;;;;2.13;1.17;;;24.90;70.90;;;;;;4952786;28;98514;-71
2022/06/09 11:36:50;;;;;;;4.47;1.30;;;24.90;71.90;;;;;;4949428;28;99235;-71
2022/06/09 11:39:39;;;;;;;2.97;1.10;;;25.00;70.50;;;;;;4950708;28;101822;-72
2022/06/09 11:42:30;;;;;;;4.43;2.03;;;24.80;70.80;;;;;;4951636;28;98493;-71
2022/06/09 11:45:00;;;;;;;4.22;1.30;;;24.80;70.40;;;;;;4968119;28;99225;-71
2022/06/09 11:47:32;;;;;;;3.53;1.50;;;24.70;70.50;;;;;;4950835;28;100130;-71
2022/06/09 11:50:05;;;;;;;4.05;1.70;;;24.80;71.30;;;;;;4952575;28;99772;-71
2022/06/09 11:52:40;;;;;;;4.82;1.15;;;25.00;69.60;;;;;;4967730;28;98565;-71
2022/06/09 11:55:16;;;;;;;3.03;1.10;;;25.20;69.00;;;;;;4953180;28;98915;-71
2022/06/09 11:57:48;;;;;;;2.70;2.35;;;25.30;69.70;;;;;;4969498;28;99249;-71
2022/06/09 12:00:27;;;;;;;4.63;1.50;;;25.40;67.50;;;;;;4971904;28;98950;-71
2022/06/09 12:03:07;;;;;;;5.05;1.30;;;25.60;68.40;;;;;;4972340;28;98397;-71
2022/06/09 12:06:06;;;;;;;3.08;1.00;;;25.70;67.10;;;;;;4972633;28;97856;-71
2022/06/09 12:08:51;;;;;;;4.00;1.33;;;25.80;67.00;;;;;;4949821;28;100429;-71
2022/06/09 12:11:22;;;;;;;2.65;1.30;;;25.80;67.30;;;;;;4971993;28;99098;-71
2022/06/09 12:14:03;;;;;;;2.78;1.35;;;25.70;68.00;;;;;;4972157;28;99392;-71
2022/06/09 12:16:35;;;;;;;3.08;1.23;;;25.80;69.00;;;;;;4937854;28;98518;-71
2022/06/09 12:19:05;;;;;;;2.35;1.45;;;25.60;68.40;;;;;;4971972;28;99312;-72
2022/06/09 12:21:37;;;;;;;4.32;2.13;;;25.50;68.60;;;;;;4971471;28;99768;-71
2022/06/09 12:24:30;;;;;;;5.63;1.38;;;25.50;67.80;;;;;;4954714;28;98438;-72
2022/06/09 12:27:17;;;;;;;2.17;1.97;;;25.20;66.90;;;;;;4972387;28;98469;-71
2022/06/09 12:29:57;;;;;;;3.80;1.90;;;25.00;67.40;;;;;;4971451;28;99725;-71
2022/06/09 12:32:37;;;;;;;3.25;1.38;;;24.90;68.60;;;;;;4972302;28;99074;-71
2022/06/09 12:35:31;;;;;;;4.53;1.35;;;24.70;68.50;;;;;;4954255;28;98652;-72
2022/06/09 12:38:40;;;;;;;1.73;0.98;;;24.60;68.30;;;;;;4972606;28;98485;-71
2022/06/09 12:41:20;;;;;;;2.25;2.03;;;24.50;68.10;;;;;;4972692;28;103710;-72
2022/06/09 12:44:07;;;;;;;3.80;1.27;;;24.40;69.20;;;;;;4975071;28;99565;-71
2022/06/09 12:46:40;;;;;;;3.97;2.15;;;24.40;67.90;;;;;;4975021;28;99363;-71
2022/06/09 12:49:15;;;;;;;;;;;24.40;68.60;;;;;;4975567;28;98552;-71
2022/06/09 12:51:42;;;;;;;1.80;1.10;;;24.30;68.70;;;;;;4974212;28;102052;-71
2022/06/09 12:54:31;;;;;;;3.13;1.08;;;24.30;68.70;;;;;;4974503;28;99039;-71
2022/06/09 12:57:06;;;;;;;3.60;1.30;;;24.40;68.80;;;;;;4956530;28;98497;-71
2022/06/09 12:59:37;;;;;;;3.63;2.85;;;24.50;70.10;;;;;;4975064;28;97872;-71
2022/06/09 13:02:24;;;;;;;2.47;1.83;;;24.50;69.90;;;;;;4974596;28;99237;-71
2022/06/09 13:05:01;;;;;;;4.60;1.70;;;24.60;70.00;;;;;;4974478;28;99063;-71
2022/06/09 13:07:34;;;;;;;3.13;1.60;;;24.80;70.30;;;;;;4956549;28;99309;-71
2022/06/09 13:10:13;;;;;;;3.92;1.85;;;25.00;69.10;;;;;;4974951;28;98969;-71
2022/06/09 13:12:52;;;;;;;3.22;1.55;;;25.20;67.80;;;;;;4973900;28;99354;-71
2022/06/09 13:15:40;;;;;;;2.83;1.13;;;25.30;67.20;;;;;;4973017;28;98946;-71
2022/06/09 13:18:28;;;;;;;1.98;1.58;;;25.50;68.30;;;;;;4974432;28;98437;-71
2022/06/09 13:21:02;;;;;;;5.28;2.78;;;25.50;66.40;;;;;;4973351;28;98561;-71
2022/06/09 13:23:30;;;;;;;4.28;1.65;;;25.50;67.90;;;;;;4973837;28;99394;-71
2022/06/09 13:25:58;;;;;;;2.80;2.22;;;25.60;68.90;;;;;;4940371;28;100090;-71
2022/06/09 13:28:33;;;;;;;3.75;1.90;;;25.50;68.10;;;;;;4973136;28;98564;-71
2022/06/09 13:31:04;;;;;;;2.47;1.30;;;25.60;67.80;;;;;;4973344;28;98504;-71